Time;durP1;ratioP1;P1;durP2;ratioP2;P2;SDS_P1;SDS_P2;PMS_P1;PMS_P2;Temp;Humidity;BMP_temperature;BMP_pressure;BME280_temperature;BME280_humidity;BME280_pressure;Samples;Min_cycle;Max_cycle;Signal;HPM_P1;HPM_P2
2022/03/26 07:21:27;;;;;;;31.58;20.05;;;;;;;;;;4682400;23;20058;-73
2022/03/26 08:02:20;;;;;;;30.10;19.90;;;28.30;16.40;;;;;;4685686;23;20087;-77
2022/03/26 08:04:46;;;;;;;30.02;20.45;;;;;;;;;;4931434;29;20035;-74
2022/03/26 08:07:13;;;;;;;29.77;20.73;;;;;;;;;;4930554;29;20043;-72
2022/03/26 08:09:42;;;;;;;34.88;22.75;;;31.20;34.80;;;;;;4948533;29;20312;-72
2022/03/26 08:12:12;;;;;;;135.07;23.80;;;31.00;16.90;;;;;;4949348;29;20031;-74
2022/03/26 08:14:41;;;;;;;36.55;22.52;;;31.20;16.60;;;;;;4951175;28;20043;-71
2022/03/26 08:17:09;;;;;;;36.65;21.73;;;31.90;22.20;;;;;;4951405;28;20103;-71
2022/03/26 08:19:39;;;;;;;32.22;22.48;;;31.80;44.50;;;;;;4948634;28;20462;-70
2022/03/26 08:22:08;;;;;;;32.17;22.43;;;34.00;39.90;;;;;;4940796;28;20413;-70
2022/03/26 08:24:37;;;;;;;36.67;22.52;;;31.50;38.00;;;;;;4938128;29;20784;-71
2022/03/26 08:27:04;;;;;;;32.92;21.40;;;33.40;36.20;;;;;;4956496;28;20027;-70
2022/03/26 08:29:30;;;;;;;34.40;22.35;;;32.90;15.70;;;;;;4941593;29;20467;-71
2022/03/26 08:31:56;;;;;;;33.03;22.02;;;;;;;;;;4938960;29;20534;-71
2022/03/26 08:34:22;;;;;;;118.10;25.30;;;34.70;45.20;;;;;;4937580;29;20044;-71
2022/03/26 08:36:51;;;;;;;37.10;23.48;;;34.70;35.40;;;;;;4939110;29;20490;-73
2022/03/26 08:39:22;;;;;;;35.90;25.90;;;34.30;27.80;;;;;;4945670;29;20050;-71
2022/03/26 08:41:55;;;;;;;32.20;23.00;;;35.40;27.20;;;;;;4950302;29;20311;-71
2022/03/26 08:44:24;;;;;;;30.88;22.67;;;34.50;46.40;;;;;;4949229;28;20027;-71
2022/03/26 08:46:54;;;;;;;31.55;22.83;;;35.70;46.10;;;;;;4952700;28;20122;-71
2022/03/26 08:49:22;;;;;;;32.83;23.90;;;35.10;21.20;;;;;;4946916;28;20463;-72
2022/03/26 08:51:52;;;;;;;32.25;22.90;;;35.20;13.90;;;;;;4945729;29;20117;-75
2022/03/26 08:54:20;;;;;;;32.65;23.17;;;;;;;;;;4936651;29;20062;-77
2022/03/26 08:56:48;;;;;;;36.17;23.40;;;;;;;;;;4938219;29;20027;-74
2022/03/26 08:59:16;;;;;;;30.88;22.23;;;;;;;;;;4948312;28;20028;-74
2022/03/26 09:01:43;;;;;;;51.33;23.63;;;;;;;;;;4939040;29;20063;-73
2022/03/26 09:04:11;;;;;;;31.98;23.25;;;;;;;;;;4949973;28;20409;-72
2022/03/26 09:06:37;;;;;;;35.45;23.58;;;;;;;;;;4933419;28;20598;-73
2022/03/26 09:09:04;;;;;;;33.65;23.95;;;;;;;;;;4943100;28;20028;-74
2022/03/26 09:11:31;;;;;;;29.85;23.05;;;;;;;;;;4936028;29;20032;-73
2022/03/26 09:13:59;;;;;;;34.17;23.35;;;;;;;;;;4939363;28;20073;-74
2022/03/26 09:16:26;;;;;;;38.28;23.33;;;;;;;;;;4940570;29;20035;-74
2022/03/26 09:18:54;;;;;;;33.63;24.30;;;;;;;;;;4949223;29;20023;-75
2022/03/26 09:21:21;;;;;;;37.10;24.13;;;;;;;;;;4947865;29;20114;-75
2022/03/26 09:23:47;;;;;;;31.17;23.08;;;;;;;;;;4938842;29;20031;-75
2022/03/26 09:26:13;;;;;;;30.10;23.80;;;;;;;;;;4954207;28;20031;-73
2022/03/26 09:28:39;;;;;;;30.15;23.73;;;;;;;;;;4938457;29;20032;-75
2022/03/26 09:31:06;;;;;;;32.08;24.60;;;;;;;;;;4937207;29;20023;-74
2022/03/26 09:33:35;;;;;;;33.08;24.38;;;40.50;31.10;;;;;;4937202;29;20100;-74
2022/03/26 09:36:04;;;;;;;28.95;23.85;;;;;;;;;;4947464;29;20033;-74
2022/03/26 09:38:37;;;;;;;29.90;24.13;;;;;;;;;;4937044;28;20114;-74
2022/03/26 09:41:04;;;;;;;31.15;24.05;;;;;;;;;;4944978;28;20379;-73
2022/03/26 09:43:32;;;;;;;35.90;24.42;;;;;;;;;;4945153;29;20038;-74
2022/03/26 09:45:58;;;;;;;29.73;23.77;;;;;;;;;;4935928;29;20078;-74
2022/03/26 09:48:25;;;;;;;30.92;24.08;;;;;;;;;;4946853;29;20383;-74
2022/03/26 09:50:53;;;;;;;30.83;24.83;;;;;;;;;;4946759;29;20023;-74
2022/03/26 09:53:19;;;;;;;30.75;23.88;;;42.60;9.50;;;;;;4946205;29;20031;-74
2022/03/26 09:55:44;;;;;;;33.72;24.15;;;43.00;10.20;;;;;;4947116;29;20109;-75
2022/03/26 09:58:12;;;;;;;31.10;24.58;;;;;;;;;;4944706;29;20031;-74
2022/03/26 10:00:38;;;;;;;28.50;23.67;;;43.90;10.10;;;;;;4947422;29;20103;-75
2022/03/26 10:03:04;;;;;;;39.75;24.05;;;45.20;10.70;;;;;;4935133;29;20052;-75
2022/03/26 10:05:34;;;;;;;54.13;25.15;;;43.90;9.20;;;;;;4946664;29;20114;-75
2022/03/26 10:08:25;;;;;;;37.80;24.42;;;43.40;9.00;;;;;;4937100;29;20040;-76
2022/03/26 10:10:52;;;;;;;33.55;24.00;;;43.90;9.70;;;;;;4944006;29;20520;-75
2022/03/26 10:13:38;;;;;;;35.55;24.73;;;44.10;9.70;;;;;;4940795;29;20043;-75
2022/03/26 10:16:10;;;;;;;40.45;24.70;;;44.20;10.10;;;;;;4940680;29;20031;-75
2022/03/26 10:18:38;;;;;;;29.02;24.83;;;44.40;8.90;;;;;;4937174;29;20086;-75
2022/03/26 10:21:23;;;;;;;32.88;26.13;;;44.80;10.50;;;;;;4949696;28;20039;-75
2022/03/26 10:23:54;;;;;;;29.23;24.40;;;44.40;9.60;;;;;;4932861;29;20075;-75
2022/03/26 10:26:22;;;;;;;34.22;25.10;;;44.60;9.30;;;;;;4932417;29;20074;-75
2022/03/26 10:28:56;;;;;;;29.63;25.40;;;44.60;9.20;;;;;;4938633;28;20106;-75
2022/03/26 10:34:16;;;;;;;41.17;25.67;;;44.60;9.30;;;;;;4942715;29;20152;-75
2022/03/26 10:36:47;;;;;;;48.63;26.33;;;44.70;9.20;;;;;;4940544;29;20028;-74
2022/03/26 10:39:22;;;;;;;34.17;25.80;;;44.60;9.30;;;;;;4942355;29;20035;-78
2022/03/26 10:41:49;;;;;;;32.55;25.98;;;44.70;9.10;;;;;;4941460;29;20122;-76
2022/03/26 10:44:17;;;;;;;32.75;27.25;;;44.90;9.00;;;;;;4948507;29;20506;-74
2022/03/26 10:46:50;;;;;;;36.65;25.80;;;44.80;9.00;;;;;;4943919;29;20101;-74
2022/03/26 10:49:28;;;;;;;32.17;26.25;;;44.90;9.00;;;;;;4943978;28;20031;-75
2022/03/26 10:51:56;;;;;;;32.92;25.75;;;45.00;9.00;;;;;;4949486;28;20437;-74
2022/03/26 10:54:33;;;;;;;33.83;26.05;;;45.10;8.80;;;;;;4948913;29;20572;-75
2022/03/26 10:56:59;;;;;;;33.33;25.80;;;45.10;8.80;;;;;;4939347;29;20513;-75
2022/03/26 10:59:30;;;;;;;30.27;25.52;;;47.50;9.40;;;;;;4934879;29;20494;-75
2022/03/26 11:01:57;;;;;;;32.83;26.92;;;45.60;8.70;;;;;;4942246;29;20047;-75
2022/03/26 11:04:24;;;;;;;37.10;26.50;;;45.80;8.40;;;;;;4945509;29;20035;-74
2022/03/26 11:06:51;;;;;;;30.63;25.90;;;46.00;8.20;;;;;;4946046;29;20035;-74
2022/03/26 11:09:17;;;;;;;31.52;27.27;;;46.10;8.10;;;;;;4944389;29;20483;-73
2022/03/26 11:11:45;;;;;;;33.25;27.23;;;46.20;7.80;;;;;;4950657;28;20106;-74
2022/03/26 11:14:18;;;;;;;29.52;25.60;;;46.10;8.00;;;;;;4948732;29;20035;-74
2022/03/26 11:17:18;;;;;;;31.17;26.10;;;45.60;8.30;;;;;;4947235;29;20472;-73
2022/03/26 11:20:08;;;;;;;32.40;25.02;;;45.80;9.30;;;;;;4946966;29;20034;-73
2022/03/26 11:22:39;;;;;;;36.10;26.42;;;45.90;8.50;;;;;;4950835;28;20058;-74
2022/03/26 11:25:26;;;;;;;31.45;26.50;;;46.20;7.80;;;;;;4950308;28;20106;-75
2022/03/26 11:28:11;;;;;;;31.95;27.17;;;45.90;7.30;;;;;;4951726;28;20057;-74
2022/03/26 11:30:58;;;;;;;31.67;26.70;;;45.20;7.10;;;;;;4948632;29;20483;-74
2022/03/26 11:33:24;;;;;;;35.08;26.85;;;45.70;7.40;;;;;;4950280;28;20098;-74
2022/03/26 11:35:55;;;;;;;60.92;27.25;;;45.60;8.00;;;;;;4946126;29;20554;-75
2022/03/26 11:38:23;;;;;;;30.27;26.80;;;45.90;7.80;;;;;;4939408;28;20046;-74
2022/03/26 11:40:55;;;;;;;33.45;27.83;;;45.80;7.60;;;;;;4943446;28;20059;-74
2022/03/26 11:43:42;;;;;;;32.55;27.27;;;45.90;7.50;;;;;;4948742;28;20114;-74
2022/03/26 11:52:12;;;;;;;32.15;26.45;;;44.40;8.30;;;;;;4940687;29;20141;-74
2022/03/26 11:54:37;;;;;;;32.67;26.60;;;44.70;8.50;;;;;;4947524;29;20027;-74
2022/03/26 11:57:20;;;;;;;31.05;27.48;;;44.50;8.30;;;;;;4940475;29;20398;-74
2022/03/26 11:59:47;;;;;;;34.45;27.48;;;44.90;7.30;;;;;;4948590;28;20029;-74
2022/03/26 12:02:24;;;;;;;30.63;26.27;;;45.00;8.00;;;;;;4939710;29;20443;-75
2022/03/26 12:04:57;;;;;;;35.78;26.48;;;45.00;8.00;;;;;;4919042;29;20032;-74
2022/03/26 12:07:27;;;;;;;31.45;24.95;;;45.00;8.00;;;;;;4919229;29;20043;-74
2022/03/26 12:10:17;;;;;;;30.30;25.48;;;45.20;7.40;;;;;;4925979;29;20028;-74
2022/03/26 12:12:51;;;;;;;36.38;24.77;;;45.20;8.20;;;;;;4919361;29;20031;-75
2022/03/26 12:15:17;;;;;;;34.85;27.05;;;45.40;8.10;;;;;;4926995;29;20035;-77
2022/03/26 12:17:44;;;;;;;32.53;25.85;;;45.60;7.60;;;;;;4931578;29;20084;-74
2022/03/26 12:20:45;;;;;;;34.42;27.15;;;46.50;9.50;;;;;;4927072;29;20054;-75
2022/03/26 12:23:13;;;;;;;30.48;27.17;;;44.70;8.00;;;;;;4928983;29;20044;-76
2022/03/26 12:25:49;;;;;;;36.70;26.75;;;44.00;7.70;;;;;;4928006;29;20028;-75
2022/03/26 12:28:30;;;;;;;31.20;26.45;;;44.20;8.40;;;;;;4918971;29;20031;-75
2022/03/26 12:30:58;;;;;;;33.95;27.90;;;44.40;8.40;;;;;;4919648;29;20074;-75
2022/03/26 12:33:25;;;;;;;35.83;26.83;;;44.50;8.20;;;;;;4926326;29;20028;-76
2022/03/26 12:35:53;;;;;;;30.95;26.42;;;44.50;8.10;;;;;;4915883;29;20044;-76
2022/03/26 12:38:21;;;;;;;33.27;26.70;;;44.50;7.40;;;;;;4926541;29;20042;-77
2022/03/26 12:40:57;;;;;;;31.13;25.38;;;44.40;8.10;;;;;;4918939;29;20135;-76
2022/03/26 12:43:24;;;;;;;28.80;24.17;;;43.30;7.90;;;;;;4920166;29;20028;-76
2022/03/26 12:45:51;;;;;;;30.50;24.35;;;46.70;9.70;;;;;;4919321;29;20116;-76
2022/03/26 12:48:17;;;;;;;27.13;21.83;;;43.80;8.50;;;;;;4918316;29;20056;-77
2022/03/26 12:50:45;;;;;;;29.02;21.58;;;44.10;8.40;;;;;;4925319;29;20036;-76
2022/03/26 12:53:13;;;;;;;28.58;21.58;;;44.40;7.10;;;;;;4919230;29;20051;-76
2022/03/26 12:55:39;;;;;;;26.50;22.50;;;44.50;6.80;;;;;;4926025;29;20089;-76
2022/03/26 13:01:03;;;;;;;26.08;22.48;;;43.90;7.80;;;;;;4929479;29;20067;-77
2022/03/26 13:03:29;;;;;;;26.70;22.40;;;43.20;7.90;;;;;;4944826;29;20044;-77
2022/03/26 13:05:55;;;;;;;31.17;22.75;;;43.00;7.90;;;;;;4947208;29;20487;-75
2022/03/26 13:08:20;;;;;;;27.35;23.17;;;42.90;8.20;;;;;;4937565;29;20038;-75
2022/03/26 13:10:46;;;;;;;31.33;23.27;;;42.80;8.00;;;;;;4940727;29;20816;-75
2022/03/26 13:13:12;;;;;;;29.05;23.83;;;42.50;8.20;;;;;;4942277;29;20050;-76
2022/03/26 13:15:38;;;;;;;25.92;21.67;;;42.60;8.40;;;;;;4940284;28;20158;-75
2022/03/26 13:18:06;;;;;;;29.30;21.00;;;42.60;8.60;;;;;;4944881;28;20046;-76
2022/03/26 13:20:35;;;;;;;28.08;20.92;;;42.80;8.30;;;;;;4948724;29;20035;-76
2022/03/26 13:23:07;;;;;;;125.90;24.83;;;43.00;8.30;;;;;;4946752;29;20031;-77
2022/03/26 13:25:39;;;;;;;28.05;21.77;;;42.70;9.30;;;;;;4941401;29;20399;-76
2022/03/26 13:28:22;;;;;;;26.98;22.73;;;42.70;8.10;;;;;;4942853;29;20035;-76
2022/03/26 13:30:50;;;;;;;27.77;22.73;;;42.70;8.70;;;;;;4944256;28;20031;-76
2022/03/26 13:33:16;;;;;;;35.63;22.38;;;42.60;8.60;;;;;;4934340;29;20036;-77
2022/03/26 13:35:47;;;;;;;29.17;21.95;;;42.30;8.60;;;;;;4948041;29;20031;-77
2022/03/26 13:38:13;;;;;;;25.63;22.73;;;42.00;8.80;;;;;;4937163;29;20122;-77
2022/03/26 13:40:39;;;;;;;25.13;21.48;;;42.30;9.00;;;;;;4942338;29;20115;-76
2022/03/26 13:43:10;;;;;;;28.73;22.50;;;42.10;9.10;;;;;;4944780;29;20106;-75
2022/03/26 13:45:36;;;;;;;26.90;21.58;;;42.10;8.70;;;;;;4948474;28;20034;-76
2022/03/26 13:48:02;;;;;;;27.52;20.08;;;41.80;9.20;;;;;;4931730;29;20561;-75
2022/03/26 13:50:28;;;;;;;24.73;20.15;;;42.10;8.40;;;;;;4933024;29;20106;-75
2022/03/26 13:52:54;;;;;;;25.23;20.65;;;42.10;8.60;;;;;;4945280;29;20074;-75
2022/03/26 13:55:30;;;;;;;25.48;21.92;;;41.90;8.70;;;;;;4940444;29;20399;-75
2022/03/26 13:57:59;;;;;;;24.42;20.73;;;41.30;8.40;;;;;;4938999;29;20062;-76
2022/03/26 14:00:27;;;;;;;27.02;21.65;;;41.30;8.40;;;;;;4918463;29;20110;-76
2022/03/26 14:02:54;;;;;;;28.58;20.55;;;41.70;9.10;;;;;;4946607;28;20047;-75
2022/03/26 14:05:28;;;;;;;24.67;20.95;;;41.40;9.00;;;;;;4940945;29;20532;-76
2022/03/26 14:08:05;;;;;;;32.55;22.65;;;41.40;9.50;;;;;;4945882;29;20486;-76
2022/03/26 14:10:37;;;;;;;27.83;22.50;;;40.90;9.10;;;;;;4939507;29;20031;-75
2022/03/26 14:13:08;;;;;;;27.02;23.40;;;41.30;9.80;;;;;;4936703;29;20039;-76
2022/03/26 14:15:35;;;;;;;26.17;22.13;;;41.20;9.90;;;;;;4933566;29;20059;-74
2022/03/26 14:18:01;;;;;;;28.33;22.23;;;41.10;9.90;;;;;;4946084;29;20131;-75
2022/03/26 14:20:30;;;;;;;28.15;22.38;;;41.00;9.90;;;;;;4946955;29;20030;-74
2022/03/26 14:22:58;;;;;;;27.23;22.52;;;40.50;9.60;;;;;;4943729;29;20462;-77
2022/03/26 14:25:28;;;;;;;27.67;22.88;;;40.90;10.30;;;;;;4948509;28;20579;-74
2022/03/26 14:30:09;;;;;;;25.77;22.98;;;40.30;9.90;;;;;;5114515;27;20422;-77
2022/03/26 14:32:35;;;;;;;26.40;22.10;;;40.30;10.10;;;;;;5086258;28;20085;-77
2022/03/26 14:35:00;;;;;;;25.58;21.98;;;40.10;10.20;;;;;;5088639;28;20512;-77
2022/03/26 14:37:26;;;;;;;26.40;21.67;;;39.90;10.40;;;;;;5082311;28;20092;-77
2022/03/26 14:39:52;;;;;;;24.73;20.88;;;39.80;10.70;;;;;;5080425;28;20035;-77
2022/03/26 14:42:18;;;;;;;24.13;20.67;;;39.70;10.70;;;;;;5081517;28;20082;-74
2022/03/26 14:44:43;;;;;;;44.35;22.15;;;39.40;10.60;;;;;;5085018;28;20520;-76
2022/03/26 14:47:09;;;;;;;34.50;21.02;;;39.40;10.80;;;;;;5092954;28;20031;-75
2022/03/26 14:49:35;;;;;;;24.20;21.15;;;39.10;11.20;;;;;;5087940;28;20159;-76
2022/03/26 14:52:00;;;;;;;24.13;21.55;;;38.90;11.20;;;;;;5081382;28;20043;-76
2022/03/26 14:54:27;;;;;;;26.42;21.90;;;38.70;11.40;;;;;;5081725;28;20035;-74
2022/03/26 14:56:53;;;;;;;25.10;22.40;;;;;;;;;;5084140;28;20027;-76
2022/03/26 14:59:19;;;;;;;25.02;21.45;;;38.20;11.30;;;;;;5089506;28;20027;-76
2022/03/26 15:01:45;;;;;;;32.25;22.00;;;37.90;12.20;;;;;;5080921;28;20031;-76
2022/03/26 15:04:11;;;;;;;27.67;21.63;;;37.50;12.30;;;;;;5086133;28;20029;-76
2022/03/26 15:06:39;;;;;;;24.85;21.52;;;36.80;12.80;;;;;;5089921;28;20033;-76
2022/03/26 15:09:05;;;;;;;31.15;22.98;;;36.00;13.70;;;;;;5084483;28;20044;-76
2022/03/26 15:11:31;;;;;;;28.35;22.83;;;34.90;14.20;;;;;;5088206;28;20078;-75
2022/03/26 15:13:57;;;;;;;26.05;22.08;;;33.80;14.80;;;;;;5085323;28;20461;-77
2022/03/26 15:16:22;;;;;;;28.65;21.67;;;32.90;15.50;;;;;;5085528;28;20020;-77
2022/03/26 15:18:48;;;;;;;29.83;23.25;;;32.30;15.90;;;;;;5086584;28;20124;-76
2022/03/26 15:21:14;;;;;;;33.20;23.83;;;31.60;16.50;;;;;;5095928;28;20135;-75
2022/03/26 15:23:40;;;;;;;30.50;24.00;;;31.00;17.10;;;;;;5090904;28;20028;-76
2022/03/26 15:26:06;;;;;;;32.05;23.88;;;30.60;17.50;;;;;;5086976;28;20038;-76
2022/03/26 15:28:32;;;;;;;32.00;23.33;;;30.00;17.90;;;;;;5093158;28;20077;-75
2022/03/26 15:30:58;;;;;;;31.00;23.20;;;29.70;18.30;;;;;;5090669;28;20490;-75
2022/03/26 15:33:23;;;;;;;30.38;22.65;;;29.20;18.20;;;;;;5082148;28;20670;-75
2022/03/26 15:35:49;;;;;;;30.80;21.67;;;29.10;17.90;;;;;;5084504;28;20028;-75
2022/03/26 15:38:15;;;;;;;29.35;21.73;;;28.60;18.40;;;;;;5100471;28;20020;-76
2022/03/26 15:40:41;;;;;;;29.60;21.52;;;28.20;18.90;;;;;;5076657;28;20032;-76
2022/03/26 15:43:08;;;;;;;30.90;20.27;;;27.90;18.50;;;;;;5066990;28;20502;-74
2022/03/26 15:45:33;;;;;;;29.98;20.35;;;27.70;19.00;;;;;;5071626;28;20044;-74
2022/03/26 15:47:59;;;;;;;42.30;30.95;;;27.60;19.00;;;;;;5078287;28;20040;-74
2022/03/26 15:50:26;;;;;;;32.28;21.42;;;27.40;18.90;;;;;;5067333;28;20486;-79
2022/03/26 15:53:01;;;;;;;31.23;23.40;;;27.20;19.00;;;;;;5071199;28;20020;-79
2022/03/26 15:55:27;;;;;;;34.05;21.95;;;27.00;19.30;;;;;;5072388;28;20116;-79
2022/03/26 15:57:53;;;;;;;31.75;21.85;;;26.70;20.10;;;;;;5078072;28;20052;-78
2022/03/26 16:00:19;;;;;;;33.60;22.20;;;26.50;20.10;;;;;;5067488;28;20565;-77
2022/03/26 16:02:45;;;;;;;35.25;25.27;;;26.40;20.20;;;;;;5070535;28;20119;-78
2022/03/26 16:05:10;;;;;;;30.25;21.98;;;26.30;19.90;;;;;;5070224;28;20036;-78
2022/03/26 16:07:37;;;;;;;31.05;21.58;;;26.20;19.90;;;;;;5067891;28;20570;-78
2022/03/26 16:10:05;;;;;;;31.30;21.10;;;26.00;20.50;;;;;;5069565;28;20033;-78
2022/03/26 16:12:31;;;;;;;30.70;21.70;;;25.90;20.30;;;;;;5069179;28;20024;-77
2022/03/26 16:14:58;;;;;;;31.73;21.50;;;25.60;20.50;;;;;;5052812;28;20427;-78
2022/03/26 16:17:25;;;;;;;30.05;19.55;;;25.50;19.80;;;;;;5071608;28;20471;-78
2022/03/26 16:19:50;;;;;;;26.05;18.40;;;25.40;20.30;;;;;;5068712;28;20445;-79
2022/03/26 16:22:20;;;;;;;28.45;19.88;;;25.30;20.60;;;;;;5071241;28;20757;-78
2022/03/26 16:24:47;;;;;;;31.73;18.58;;;25.30;20.20;;;;;;5074843;28;20028;-78
2022/03/26 16:27:14;;;;;;;32.08;18.67;;;25.10;20.80;;;;;;5067777;28;20028;-79
2022/03/26 16:29:41;;;;;;;26.85;18.15;;;24.90;20.90;;;;;;5070543;28;20048;-78
2022/03/26 16:32:11;;;;;;;27.77;17.85;;;24.90;20.60;;;;;;5071179;28;20135;-80
2022/03/26 16:34:37;;;;;;;29.38;20.13;;;24.90;20.80;;;;;;5062701;28;20411;-80
2022/03/26 16:37:04;;;;;;;29.80;20.58;;;24.70;20.30;;;;;;5065623;28;20024;-82
2022/03/26 16:39:30;;;;;;;30.52;19.65;;;24.50;21.20;;;;;;5071040;28;20063;-80
2022/03/26 16:41:58;;;;;;;152.20;23.77;;;24.40;21.20;;;;;;5066590;28;20060;-80
2022/03/26 16:44:24;;;;;;;30.73;19.38;;;24.40;21.00;;;;;;5081434;28;20573;-79
2022/03/26 16:46:51;;;;;;;27.80;18.58;;;24.20;21.30;;;;;;5084692;28;20032;-77
2022/03/26 16:49:17;;;;;;;27.27;19.00;;;24.10;21.50;;;;;;5072566;28;20070;-81
2022/03/26 16:51:43;;;;;;;26.52;18.15;;;24.00;21.80;;;;;;5068236;28;20016;-80
2022/03/26 16:54:09;;;;;;;26.23;18.67;;;23.80;22.10;;;;;;5069067;28;20123;-82
2022/03/26 16:56:37;;;;;;;63.63;20.73;;;23.80;22.60;;;;;;5071287;28;20100;-83
2022/03/26 16:59:04;;;;;;;29.27;19.42;;;23.70;22.20;;;;;;5071492;28;20078;-83
2022/03/26 17:01:30;;;;;;;30.60;19.60;;;23.50;22.20;;;;;;5070953;28;20055;-83
2022/03/26 17:03:58;;;;;;;28.63;20.13;;;23.40;22.80;;;;;;5069328;28;20486;-82
2022/03/26 17:06:29;;;;;;;30.88;20.52;;;23.40;24.10;;;;;;5070282;28;20025;-82
2022/03/26 17:08:56;;;;;;;26.88;20.05;;;23.30;23.20;;;;;;5069363;28;20097;-82
2022/03/26 17:11:21;;;;;;;29.40;20.67;;;23.30;23.70;;;;;;5071431;28;20063;-83
2022/03/26 17:13:47;;;;;;;33.45;22.45;;;23.10;24.00;;;;;;5069891;28;20068;-83
2022/03/26 17:16:13;;;;;;;32.15;22.60;;;23.10;24.20;;;;;;5070007;28;20020;-83
2022/03/26 17:18:41;;;;;;;40.72;22.50;;;23.00;24.50;;;;;;5069991;28;20024;-82
2022/03/26 17:21:07;;;;;;;32.83;22.42;;;22.90;25.20;;;;;;5069790;28;20025;-82
2022/03/26 17:23:33;;;;;;;32.42;21.50;;;22.80;25.00;;;;;;5071621;28;20013;-82
2022/03/26 17:26:01;;;;;;;41.15;21.70;;;22.60;24.90;;;;;;5071241;28;20032;-81
2022/03/26 17:28:26;;;;;;;36.67;22.15;;;22.50;24.80;;;;;;5070800;28;20131;-82
2022/03/26 17:30:52;;;;;;;31.88;21.35;;;22.40;24.90;;;;;;5084445;28;20123;-82
2022/03/26 17:33:18;;;;;;;34.83;22.05;;;22.30;24.80;;;;;;5070218;28;20117;-81
2022/03/26 17:35:44;;;;;;;34.28;21.02;;;22.10;24.60;;;;;;5068884;28;20025;-79
2022/03/26 17:38:09;;;;;;;31.45;21.23;;;22.10;25.30;;;;;;5069776;28;20040;-79
2022/03/26 17:40:35;;;;;;;34.17;21.77;;;21.90;25.60;;;;;;5068682;28;20494;-80
2022/03/26 17:43:02;;;;;;;37.50;22.85;;;21.90;25.80;;;;;;5062995;28;20094;-79
2022/03/26 17:45:28;;;;;;;33.88;22.20;;;21.70;25.70;;;;;;5056871;28;20107;-80
2022/03/26 17:47:55;;;;;;;39.13;25.80;;;21.70;26.40;;;;;;5068600;28;20589;-81
2022/03/26 17:50:21;;;;;;;36.45;24.58;;;21.60;26.50;;;;;;5069671;28;20073;-79
2022/03/26 17:52:47;;;;;;;44.60;31.98;;;21.50;26.80;;;;;;5067867;28;20016;-78
2022/03/26 17:55:13;;;;;;;37.92;25.75;;;21.40;27.20;;;;;;5070765;28;20032;-80
2022/03/26 17:57:39;;;;;;;36.00;23.90;;;21.30;27.30;;;;;;5068185;28;20095;-77
2022/03/26 18:00:08;;;;;;;38.13;25.17;;;21.10;27.50;;;;;;5069308;28;20032;-79
2022/03/26 18:02:35;;;;;;;36.03;24.67;;;21.00;27.80;;;;;;5068024;28;20161;-80
2022/03/26 18:05:01;;;;;;;38.13;24.40;;;20.90;27.90;;;;;;5073876;28;20067;-78
2022/03/26 18:07:27;;;;;;;37.88;25.02;;;20.80;28.00;;;;;;5072997;28;20029;-78
2022/03/26 18:09:53;;;;;;;38.55;24.50;;;20.70;28.20;;;;;;5077657;28;20399;-77
2022/03/26 18:12:21;;;;;;;37.22;24.83;;;20.50;28.30;;;;;;5073275;28;20049;-77
2022/03/26 18:14:49;;;;;;;37.67;24.73;;;20.40;28.60;;;;;;5073689;28;20406;-77
2022/03/26 18:17:15;;;;;;;41.40;28.48;;;20.20;28.70;;;;;;5079829;28;20089;-77
2022/03/26 18:19:41;;;;;;;38.85;24.58;;;20.20;29.00;;;;;;5071468;28;20495;-76
2022/03/26 18:22:07;;;;;;;36.50;24.25;;;20.00;29.00;;;;;;5068131;28;20033;-79
2022/03/26 18:24:33;;;;;;;37.97;24.95;;;19.90;29.30;;;;;;5066440;28;20105;-77
2022/03/26 18:27:01;;;;;;;38.75;24.80;;;19.80;29.50;;;;;;5057313;28;20580;-78
2022/03/26 18:29:26;;;;;;;39.63;24.77;;;19.70;29.80;;;;;;5068423;28;20537;-78
2022/03/26 18:31:52;;;;;;;37.80;23.92;;;19.60;30.00;;;;;;5070107;28;20017;-78
2022/03/26 18:34:18;;;;;;;37.38;24.15;;;19.40;30.10;;;;;;5067376;28;20406;-76
2022/03/26 18:36:44;;;;;;;40.08;25.60;;;19.30;30.30;;;;;;5067491;28;20032;-78
2022/03/26 18:39:10;;;;;;;40.58;24.23;;;19.30;30.50;;;;;;5067682;28;20028;-80
2022/03/26 18:41:39;;;;;;;43.60;31.65;;;19.20;30.70;;;;;;5068925;28;20035;-78
2022/03/26 18:44:09;;;;;;;42.60;25.05;;;19.10;30.60;;;;;;5075050;28;20032;-77
2022/03/26 18:46:35;;;;;;;37.15;24.48;;;19.00;30.80;;;;;;5076861;28;20024;-77
2022/03/26 18:49:02;;;;;;;38.65;25.42;;;18.90;31.00;;;;;;5074390;28;20135;-78
2022/03/26 18:51:28;;;;;;;39.80;25.23;;;18.70;31.20;;;;;;5069503;28;20123;-77
2022/03/26 18:53:53;;;;;;;40.17;25.10;;;18.70;31.10;;;;;;5069532;28;20025;-76
2022/03/26 18:56:19;;;;;;;39.95;26.17;;;18.60;31.10;;;;;;5069069;28;20032;-76
2022/03/26 18:58:45;;;;;;;39.75;25.98;;;18.60;31.20;;;;;;5070697;28;20035;-76
2022/03/26 19:01:10;;;;;;;41.85;25.90;;;18.50;31.40;;;;;;5065195;28;20025;-77
2022/03/26 19:03:37;;;;;;;46.83;30.35;;;18.40;31.60;;;;;;5066030;28;20103;-76
2022/03/26 19:06:03;;;;;;;43.50;26.80;;;18.30;31.60;;;;;;5071976;28;20490;-76
2022/03/26 19:08:29;;;;;;;38.63;24.77;;;18.30;31.70;;;;;;5068723;28;20033;-76
2022/03/26 19:10:55;;;;;;;41.50;25.80;;;18.20;32.00;;;;;;5066490;28;20090;-76
2022/03/26 19:13:21;;;;;;;40.20;25.30;;;18.10;32.10;;;;;;5060573;28;20024;-77
2022/03/26 19:15:47;;;;;;;38.22;24.00;;;18.00;32.10;;;;;;5070599;28;20059;-76
2022/03/26 19:18:13;;;;;;;40.05;23.98;;;18.00;32.40;;;;;;5078848;28;20391;-76
2022/03/26 19:20:39;;;;;;;40.92;25.52;;;17.90;32.40;;;;;;5081015;28;20040;-77
2022/03/26 19:23:05;;;;;;;38.50;24.48;;;17.80;32.50;;;;;;5071700;28;20030;-79
2022/03/26 19:25:32;;;;;;;39.88;24.33;;;17.80;32.40;;;;;;5078688;28;20033;-80
2022/03/26 19:27:59;;;;;;;37.53;24.08;;;17.70;32.50;;;;;;5074436;28;20044;-77
2022/03/26 19:30:27;;;;;;;44.55;25.08;;;17.70;32.70;;;;;;5070390;28;20669;-77
2022/03/26 19:32:53;;;;;;;37.97;24.88;;;17.60;32.70;;;;;;5071544;28;20036;-77
2022/03/26 19:35:19;;;;;;;42.58;24.58;;;17.60;32.90;;;;;;5073726;28;20054;-79
2022/03/26 19:37:46;;;;;;;45.85;32.17;;;17.60;33.00;;;;;;5071343;28;20032;-80
2022/03/26 19:40:13;;;;;;;37.53;24.38;;;17.50;33.20;;;;;;5070734;28;20052;-80
2022/03/26 19:42:41;;;;;;;40.42;25.75;;;17.50;33.40;;;;;;5069843;28;20032;-82
2022/03/26 19:45:08;;;;;;;40.85;28.27;;;17.40;33.40;;;;;;5068209;28;20032;-86
2022/03/26 19:47:33;;;;;;;41.35;25.30;;;17.40;33.60;;;;;;5071131;28;20055;-83
2022/03/26 19:49:59;;;;;;;42.75;26.33;;;17.30;33.50;;;;;;5069429;28;20060;-79
2022/03/26 19:52:25;;;;;;;50.00;25.70;;;17.30;33.80;;;;;;5071752;28;20039;-80
2022/03/26 19:54:51;;;;;;;42.05;25.75;;;17.20;34.00;;;;;;5079322;28;20029;-78
2022/03/26 19:57:17;;;;;;;43.25;26.75;;;17.10;33.80;;;;;;5068850;28;20100;-80
2022/03/26 19:59:43;;;;;;;44.38;24.83;;;17.10;34.10;;;;;;5070875;28;20028;-81
2022/03/26 20:02:10;;;;;;;41.38;24.92;;;17.00;34.30;;;;;;5069878;28;20063;-79
2022/03/26 20:04:37;;;;;;;36.28;23.40;;;17.00;34.50;;;;;;5078437;28;20051;-80
2022/03/26 20:07:03;;;;;;;38.92;24.80;;;16.90;34.30;;;;;;5072734;28;20032;-78
2022/03/26 20:09:28;;;;;;;50.40;33.65;;;16.90;34.40;;;;;;5067730;28;20552;-79
2022/03/26 20:11:54;;;;;;;41.30;24.23;;;16.80;34.70;;;;;;5071768;28;20024;-81
2022/03/26 20:14:20;;;;;;;47.25;30.00;;;16.80;34.80;;;;;;5071458;28;20032;-79
2022/03/26 20:19:30;;;;;;;38.30;23.88;;;16.60;34.80;;;;;;5075187;28;20055;-81
2022/03/26 20:21:56;;;;;;;41.20;24.23;;;16.60;35.00;;;;;;5080464;28;20449;-81
2022/03/26 20:24:22;;;;;;;39.72;24.27;;;16.50;35.10;;;;;;5073642;28;20039;-80
2022/03/26 20:26:48;;;;;;;37.85;23.15;;;16.40;35.30;;;;;;5074578;28;20440;-81
2022/03/26 20:29:18;;;;;;;38.22;23.63;;;16.40;35.50;;;;;;5094564;28;20071;-81
2022/03/26 20:31:48;;;;;;;35.65;22.98;;;16.30;35.90;;;;;;5074132;28;20111;-82
2022/03/26 20:34:14;;;;;;;41.88;23.23;;;16.30;36.00;;;;;;5071853;28;20016;-81
2022/03/26 20:36:40;;;;;;;41.25;25.17;;;16.20;36.00;;;;;;5072995;28;20050;-81
2022/03/26 20:39:07;;;;;;;36.92;23.67;;;16.10;36.20;;;;;;5086065;28;20036;-79
2022/03/26 20:41:33;;;;;;;38.03;23.52;;;16.00;36.30;;;;;;5074537;28;20020;-81
2022/03/26 20:43:59;;;;;;;40.38;24.67;;;16.00;36.40;;;;;;5077113;28;20115;-80
2022/03/26 20:46:26;;;;;;;39.67;23.60;;;15.90;36.60;;;;;;5082424;28;20461;-81
2022/03/26 20:48:53;;;;;;;39.72;22.45;;;15.90;36.60;;;;;;5072240;28;20023;-81
2022/03/26 20:51:19;;;;;;;44.10;23.25;;;15.80;37.10;;;;;;5091613;28;20419;-82
2022/03/26 20:53:46;;;;;;;38.65;22.77;;;15.70;36.90;;;;;;5071581;28;20025;-82
2022/03/26 20:56:14;;;;;;;40.90;21.70;;;15.70;37.00;;;;;;5075669;28;20514;-80
2022/03/26 20:58:40;;;;;;;36.65;22.20;;;15.60;37.10;;;;;;5093335;28;20477;-79